Stacja Pogody
Warszawa Praga-Północ

Szerokość 52°15'43"N Długość 21°01'22"E Wysokość 110m n.p.m.


176 dzień roku.   Do końca pozostalo 189 dni.   Od wczoraj ubyło 0 min. i 20 sek. dnia.
Wschód Słońca 04:15 Górowanie Słońca 12:38 Zachód Słońca 21:01 rak
Data juliańska 2457930.940 Odległość Słońca 152069559 km Średn. kątowa Słońca 0,315°
Wschód Księżyca 05:56 Zachód Księżyca 22:00 Wiek Księżyca 2 dni Moon
Widoczność Księżyca 2,53% Odległość Księżyca 367120 km Średn. kątowa Księżyca 0,325°
Dzień krótszy od najdłuższego o: 00:01 Długość dnia 16:46 Imieniny Łucji, Wilhelma, Doroty



  Aktualizacja: 25-06-2017 10:31:58
TEMPERATURA
Aktualnie: 21.8°C ↑
Temperatura odczuwalna:25.4°C
Punkt rosy14.5°C
WIATR
Średnia prędkość: 14.8km/h ↑
Prędkość w podmuchach:19.4km/h
Przepływ w ciągu doby:192.4km
Kierunek wiatru:135°
CIŚNIENIE
Względne:1010.7hPa
Trend ciśnienia:powolny spadek
WILGOTNOŚĆ
Wilgotność względna: 63% ↓
Podstawa chmur3035m
DESZCZ
W ostatniej godzinie: 0.0mm
Dzisiaj:0.0mm
W tym miesiącu:17.7mm
METAR
EPWA 250800Z 25005KT 200V290 9999 SCT033 22/14 Q1011 NOSIG
Ostrzeżenia burzowe
Prognoza 12-to godzinna (prawdopodobieństwo 75%):   Opady, okresowe przejaśnienia prognoza





a  a a